createdAt,value
2023-05-20T00:00:51.007Z,97323.28
2023-05-20T00:03:18.133Z,97324.13
2023-05-20T00:05:45.068Z,97321.47
2023-05-20T00:08:12.223Z,97310.97
2023-05-20T00:10:39.736Z,97318.13
2023-05-20T00:13:06.905Z,97313.66
2023-05-20T00:15:37.227Z,97310.31
2023-05-20T00:18:04.634Z,97310.31
2023-05-20T00:20:31.630Z,97301.50
2023-05-20T00:22:58.494Z,97303.66
2023-05-20T00:25:25.615Z,97297.34
2023-05-20T00:27:52.473Z,97307.16
2023-05-20T00:30:19.324Z,97306.31
2023-05-20T00:32:46.415Z,97300.84
2023-05-20T00:35:14.192Z,97303.81
2023-05-20T00:37:41.053Z,97301.31
2023-05-20T00:40:08.378Z,97289.84
2023-05-20T00:42:35.273Z,97301.16
2023-05-20T00:45:02.147Z,97291.69
2023-05-20T00:47:32.893Z,97280.06
2023-05-20T00:50:00.679Z,97288.19
2023-05-20T00:52:31.494Z,97285.69
2023-05-20T00:54:59.993Z,97290.19
2023-05-20T00:57:27.078Z,97290.19
2023-05-20T00:59:54.180Z,97282.38
2023-05-20T01:02:21.774Z,97289.69
2023-05-20T01:04:49.241Z,97286.84
2023-05-20T01:07:18.278Z,97281.53
2023-05-20T01:09:45.934Z,97279.03
2023-05-20T01:12:23.955Z,97280.22
2023-05-20T01:15:04.096Z,97281.88
2023-05-20T01:17:33.435Z,97277.53
2023-05-20T01:20:01.812Z,97274.88
2023-05-20T01:22:29.635Z,97271.41
2023-05-20T01:24:57.363Z,97276.88
2023-05-20T01:27:24.575Z,97276.03
2023-05-20T01:29:53.048Z,97275.22
2023-05-20T01:32:23.542Z,97270.91
2023-05-20T01:34:51.668Z,97271.72
2023-05-20T01:37:23.408Z,97265.75
2023-05-20T01:39:51.373Z,97264.91
2023-05-20T01:42:19.879Z,97269.41
2023-05-20T01:44:46.797Z,97262.41
2023-05-20T01:47:13.685Z,97266.91
2023-05-20T01:49:40.628Z,97269.41
2023-05-20T01:52:07.636Z,97260.75
2023-05-20T01:54:34.586Z,97257.25
2023-05-20T01:57:01.860Z,97257.25
2023-05-20T01:59:28.762Z,97250.28
2023-05-20T02:01:55.870Z,97249.44
2023-05-20T02:04:22.981Z,97256.59
2023-05-20T02:06:50.116Z,97256.59
2023-05-20T02:09:18.890Z,97257.75
2023-05-20T02:11:45.731Z,97257.75
2023-05-20T02:14:12.842Z,97251.59
2023-05-20T02:16:39.754Z,97256.09
2023-05-20T02:19:06.848Z,97244.63
2023-05-20T02:21:35.586Z,97252.75
2023-05-20T02:24:02.399Z,97257.25
2023-05-20T02:26:29.433Z,97255.56
2023-05-20T02:28:56.294Z,97245.78
2023-05-20T02:31:23.218Z,97244.13
2023-05-20T02:33:50.186Z,97238.97
2023-05-20T02:36:17.559Z,97244.28
2023-05-20T02:38:45.100Z,97229.31
2023-05-20T02:41:11.971Z,97233.81
2023-05-20T02:43:39.286Z,97239.13
2023-05-20T02:46:06.452Z,97232.97
2023-05-20T02:48:33.286Z,97238.47
2023-05-20T02:51:00.460Z,97241.13
2023-05-20T02:53:27.441Z,97237.78
2023-05-20T02:55:54.725Z,97246.59
2023-05-20T02:58:26.644Z,97242.28
2023-05-20T03:00:53.713Z,97250.25
2023-05-20T03:03:20.823Z,97246.75
2023-05-20T03:05:47.633Z,97245.06
2023-05-20T03:08:15.283Z,97244.22
2023-05-20T03:10:42.185Z,97234.44
2023-05-20T03:13:10.253Z,97245.22
2023-05-20T03:15:40.643Z,97243.41
2023-05-20T03:18:08.809Z,97253.34
2023-05-20T03:20:42.419Z,97241.91
2023-05-20T03:23:09.557Z,97246.22
2023-05-20T03:25:37.250Z,97251.69
2023-05-20T03:28:04.487Z,97241.22
2023-05-20T03:30:31.469Z,97245.53
2023-05-20T03:32:58.936Z,97238.56
2023-05-20T03:35:26.373Z,97245.72
2023-05-20T03:37:53.593Z,97250.03
2023-05-20T03:40:21.629Z,97251.84
2023-05-20T03:42:48.479Z,97258.16
2023-05-20T03:45:15.428Z,97251.84
2023-05-20T03:47:42.331Z,97251.19
2023-05-20T03:50:09.671Z,97250.19
2023-05-20T03:52:37.396Z,97250.53
2023-05-20T03:55:05.007Z,97252.19
2023-05-20T03:57:32.557Z,97254.84
2023-05-20T04:00:02.184Z,97250.19
2023-05-20T04:02:31.858Z,97248.69
2023-05-20T04:05:09.505Z,97246.03
2023-05-20T04:07:40.568Z,97252.19
2023-05-20T04:10:08.057Z,97250.34
2023-05-20T04:12:36.289Z,97262.81
2023-05-20T04:15:05.812Z,97259.16
2023-05-20T04:17:38.517Z,97260.16
2023-05-20T04:20:07.931Z,97246.88
2023-05-20T04:22:35.135Z,97256.50
2023-05-20T04:25:03.910Z,97250.19
2023-05-20T04:27:41.303Z,97251.84
2023-05-20T04:30:10.084Z,97253.53
2023-05-20T04:32:37.101Z,97262.31
2023-05-20T04:35:08.015Z,97261.50
2023-05-20T04:37:35.239Z,97255.19
2023-05-20T04:40:03.481Z,97256.84
2023-05-20T04:42:40.784Z,97248.88
2023-05-20T04:45:18.563Z,97242.88
2023-05-20T04:47:48.945Z,97249.03
2023-05-20T04:50:17.484Z,97248.22
2023-05-20T04:52:46.270Z,97242.72
2023-05-20T04:55:13.538Z,97248.38
2023-05-20T04:57:42.631Z,97251.03
2023-05-20T05:00:11.247Z,97252.84
2023-05-20T05:02:38.900Z,97250.19
2023-05-20T05:05:06.398Z,97253.00
2023-05-20T05:07:38.603Z,97244.88
2023-05-20T05:10:06.920Z,97247.53
2023-05-20T05:12:33.989Z,97247.38
2023-05-20T05:15:01.245Z,97243.72
2023-05-20T05:17:29.991Z,97240.06
2023-05-20T05:19:58.120Z,97247.06
2023-05-20T05:22:24.936Z,97238.91
2023-05-20T05:24:52.592Z,97237.25
2023-05-20T05:27:30.033Z,97242.41
2023-05-20T05:29:58.931Z,97230.81
2023-05-20T05:32:26.756Z,97235.28
2023-05-20T05:34:53.789Z,97236.97
2023-05-20T05:37:21.481Z,97230.47
2023-05-20T05:39:53.489Z,97232.97
2023-05-20T05:42:21.454Z,97228.50
2023-05-20T05:44:49.412Z,97222.34
2023-05-20T05:47:16.598Z,97229.16
2023-05-20T05:49:49.561Z,97221.19
2023-05-20T05:52:18.652Z,97224.69
2023-05-20T05:54:46.695Z,97227.16
2023-05-20T05:57:13.863Z,97222.69
2023-05-20T05:59:40.897Z,97212.72
2023-05-20T06:02:11.901Z,97207.56
2023-05-20T06:04:46.057Z,97214.38
2023-05-20T06:07:21.196Z,97207.41
2023-05-20T06:09:48.154Z,97206.25
2023-05-20T06:12:15.098Z,97205.41
2023-05-20T06:14:46.722Z,97205.41
2023-05-20T06:17:23.261Z,97204.41
2023-05-20T06:19:50.436Z,97209.72
2023-05-20T06:22:17.310Z,97209.56
2023-05-20T06:24:44.219Z,97199.75
2023-05-20T06:27:11.092Z,97207.41
2023-05-20T06:29:39.662Z,97210.22
2023-05-20T06:32:08.600Z,97203.91
2023-05-20T06:34:35.410Z,97216.22
2023-05-20T06:37:02.763Z,97207.41
2023-05-20T06:39:29.670Z,97204.59
2023-05-20T06:41:58.608Z,97209.75
2023-05-20T06:44:25.472Z,97209.75
2023-05-20T06:46:52.491Z,97209.56
2023-05-20T06:49:19.409Z,97207.75
2023-05-20T06:51:48.454Z,97210.25
2023-05-20T06:54:23.947Z,97207.41
2023-05-20T06:56:53.147Z,97203.09
2023-05-20T06:59:20.142Z,97206.41
2023-05-20T07:01:47.052Z,97208.06
2023-05-20T07:04:14.095Z,97206.91
2023-05-20T07:06:41.213Z,97209.25
2023-05-20T07:09:18.249Z,97206.41
2023-05-20T07:11:51.772Z,97189.63
2023-05-20T07:14:23.586Z,97190.28
2023-05-20T07:16:56.755Z,97186.81
2023-05-20T07:19:23.653Z,97183.81
2023-05-20T07:21:52.729Z,97179.97
2023-05-20T07:24:22.134Z,97184.31
2023-05-20T07:26:54.525Z,97180.66
2023-05-20T07:29:21.534Z,97177.66
2023-05-20T07:31:48.438Z,97172.16
2023-05-20T07:34:15.404Z,97163.03
2023-05-20T07:36:42.285Z,97169.97
2023-05-20T07:39:14.400Z,97177.78
2023-05-20T07:41:42.394Z,97180.28
2023-05-20T07:44:09.359Z,97175.63
2023-05-20T07:46:36.429Z,97173.78
2023-05-20T07:52:25.701Z,97170.78
2023-05-20T07:54:55.413Z,97170.78
2023-05-20T07:57:26.989Z,97167.78
2023-05-20T07:59:54.777Z,97170.13
2023-05-20T08:02:21.807Z,97174.09
2023-05-20T08:04:51.380Z,97174.75
2023-05-20T08:07:18.567Z,97176.41
2023-05-20T08:09:45.540Z,97164.59
2023-05-20T08:12:21.322Z,97164.44
2023-05-20T08:14:55.365Z,97166.94
2023-05-20T08:17:23.021Z,97157.13
2023-05-20T08:19:49.998Z,97168.59
2023-05-20T08:22:16.832Z,97160.44
2023-05-20T08:24:46.774Z,97161.09
2023-05-20T08:27:14.907Z,97163.75
2023-05-20T08:29:41.774Z,97158.44
2023-05-20T08:32:08.695Z,97154.81
2023-05-20T08:34:37.953Z,97158.28
2023-05-20T08:37:05.989Z,97151.31
2023-05-20T08:39:32.849Z,97159.78
2023-05-20T08:41:59.832Z,97154.13
2023-05-20T08:44:33.040Z,97159.94
2023-05-20T08:47:05.055Z,97152.59
2023-05-20T08:49:32.330Z,97149.78
2023-05-20T08:52:01.604Z,97139.94
2023-05-20T08:54:47.418Z,97147.78
2023-05-20T08:57:16.839Z,97147.78
2023-05-20T08:59:48.491Z,97144.09
2023-05-20T09:02:16.984Z,97142.09
2023-05-20T09:04:43.989Z,97140.25
2023-05-20T09:07:10.993Z,97139.75
2023-05-20T09:09:39.787Z,97134.25
2023-05-20T09:12:07.284Z,97143.91
2023-05-20T09:14:34.114Z,97150.88
2023-05-20T09:17:00.940Z,97139.06
2023-05-20T09:19:27.916Z,97134.22
2023-05-20T09:21:57.663Z,97130.38
2023-05-20T09:24:27.035Z,97143.69
2023-05-20T09:26:54.732Z,97133.88
2023-05-20T09:29:22.079Z,97136.72
2023-05-20T09:31:49.989Z,97128.38
2023-05-20T09:34:17.872Z,97129.03
2023-05-20T09:36:45.465Z,97137.63
2023-05-20T09:39:17.424Z,97140.97
2023-05-20T09:42:06.297Z,97137.94
2023-05-20T09:44:34.439Z,97137.44
2023-05-20T09:47:01.680Z,97136.91
2023-05-20T09:49:29.864Z,97131.22
2023-05-20T09:51:58.389Z,97134.53
2023-05-20T09:54:28.591Z,97124.72
2023-05-20T09:57:02.287Z,97126.19
2023-05-20T09:59:31.843Z,97121.53
2023-05-20T10:01:58.737Z,97118.50
2023-05-20T10:04:28.190Z,97111.16
2023-05-20T10:07:15.404Z,97113.50
2023-05-20T10:10:01.804Z,97111.81
2023-05-20T10:12:46.405Z,97108.16
2023-05-20T10:15:33.670Z,97109.81
2023-05-20T10:18:04.843Z,97105.97
2023-05-20T10:20:32.532Z,97103.13
2023-05-20T10:22:59.721Z,97102.78
2023-05-20T10:25:34.198Z,97097.13
2023-05-20T10:28:11.656Z,97101.25
2023-05-20T10:30:39.276Z,97085.94
2023-05-20T10:33:09.035Z,97092.75
2023-05-20T10:35:37.588Z,97091.72
2023-05-20T10:38:14.120Z,97081.06
2023-05-20T10:40:41.817Z,97084.38
2023-05-20T10:43:13.266Z,97081.53
2023-05-20T10:45:52.651Z,97078.34
2023-05-20T10:48:30.578Z,97071.00
2023-05-20T10:51:00.067Z,97072.81
2023-05-20T10:53:33.885Z,97071.00
2023-05-20T10:56:01.662Z,97068.97
2023-05-20T10:58:40.560Z,97067.44
2023-05-20T11:01:07.510Z,97070.81
2023-05-20T11:03:35.678Z,97061.25
2023-05-20T11:06:02.886Z,97063.38
2023-05-20T11:08:36.985Z,97056.69
2023-05-20T11:11:06.696Z,97050.81
2023-05-20T11:13:34.157Z,97052.47
2023-05-20T11:16:01.735Z,97053.75
2023-05-20T11:18:36.553Z,97044.56
2023-05-20T11:21:15.715Z,97051.00
2023-05-20T11:23:43.363Z,97048.63
2023-05-20T11:26:10.313Z,97044.09
2023-05-20T11:28:38.615Z,97041.63
2023-05-20T11:31:06.021Z,97043.19
2023-05-20T11:33:41.060Z,97045.19
2023-05-20T11:36:55.616Z,97043.91
2023-05-20T11:39:35.157Z,97037.09
2023-05-20T11:42:03.941Z,97041.44
2023-05-20T11:44:31.161Z,97030.94
2023-05-20T11:47:02.625Z,97037.75
2023-05-20T11:49:36.958Z,97032.22
2023-05-20T11:52:09.448Z,97036.56
2023-05-20T11:54:37.235Z,97034.53
2023-05-20T11:57:05.750Z,97021.84
2023-05-20T11:59:35.751Z,97023.31
2023-05-20T12:02:05.517Z,97033.63
2023-05-20T12:04:33.006Z,97021.56
2023-05-20T12:06:59.936Z,97029.03
2023-05-20T12:09:32.696Z,97033.38
2023-05-20T12:12:00.176Z,97031.25
2023-05-20T12:14:27.160Z,97032.16
2023-05-20T12:16:55.859Z,97029.78
2023-05-20T12:19:52.567Z,97026.50
2023-05-20T12:22:30.924Z,97028.34
2023-05-20T12:24:57.759Z,97029.38
2023-05-20T12:27:29.127Z,97020.34
2023-05-20T12:30:04.692Z,97022.91
2023-05-20T12:32:33.213Z,97020.31
2023-05-20T12:35:00.819Z,97024.53
2023-05-20T12:37:27.757Z,97021.03
2023-05-20T12:39:54.618Z,97018.94
2023-05-20T12:42:21.579Z,97015.78
2023-05-20T12:44:48.450Z,97023.50
2023-05-20T12:47:17.527Z,97027.06
2023-05-20T12:49:53.247Z,97021.38
2023-05-20T12:52:26.230Z,97015.66
2023-05-20T12:54:57.234Z,97021.44
2023-05-20T12:57:24.653Z,97021.69
2023-05-20T12:59:56.262Z,97019.28
2023-05-20T13:02:23.968Z,97009.66
2023-05-20T13:04:51.298Z,97008.78
2023-05-20T13:07:18.206Z,97014.69
2023-05-20T13:09:53.052Z,97014.06
2023-05-20T13:12:21.173Z,97011.84
2023-05-20T13:14:48.066Z,97012.94
2023-05-20T13:17:20.459Z,97002.72
2023-05-20T13:19:50.888Z,97011.81
2023-05-20T13:22:18.700Z,97008.03
2023-05-20T13:24:45.582Z,97004.78
2023-05-20T13:27:12.633Z,96999.06
2023-05-20T13:29:45.390Z,96995.75
2023-05-20T13:32:17.932Z,96997.59
2023-05-20T13:34:45.824Z,96994.00
2023-05-20T13:37:12.680Z,96996.84
2023-05-20T13:39:39.556Z,96990.91
2023-05-20T13:42:14.178Z,96986.66
2023-05-20T13:44:46.254Z,96988.34
2023-05-20T13:47:19.637Z,96975.56
2023-05-20T13:49:47.321Z,96968.78
2023-05-20T13:52:14.338Z,96962.66
2023-05-20T13:54:48.267Z,96963.00
2023-05-20T13:57:21.454Z,96964.66
2023-05-20T14:00:06.022Z,96966.09
2023-05-20T14:02:33.556Z,96954.78
2023-05-20T14:05:00.874Z,96948.63
2023-05-20T14:07:27.774Z,96955.28
2023-05-20T14:10:00.031Z,96952.59
2023-05-20T14:12:38.281Z,96945.81
2023-05-20T14:15:17.301Z,96954.06
2023-05-20T14:17:47.152Z,96956.94
2023-05-20T14:20:16.373Z,96950.84
2023-05-20T14:22:43.247Z,96945.50
2023-05-20T14:25:19.187Z,96944.28
2023-05-20T14:27:52.349Z,96936.06
2023-05-20T14:30:28.571Z,96944.28
2023-05-20T14:32:59.480Z,96934.81
2023-05-20T14:35:26.429Z,96938.09
2023-05-20T14:37:53.570Z,96928.81
2023-05-20T14:40:25.143Z,96943.41
2023-05-20T14:43:00.340Z,96928.00
2023-05-20T14:45:27.812Z,96927.78
2023-05-20T14:47:54.692Z,96931.72
2023-05-20T14:50:26.646Z,96928.13
2023-05-20T14:52:59.000Z,96921.41
2023-05-20T14:55:27.556Z,96918.94
2023-05-20T14:57:54.883Z,96922.47
2023-05-20T15:00:22.241Z,96930.03
2023-05-20T15:02:49.559Z,96917.81
2023-05-20T15:05:21.606Z,96914.72
2023-05-20T15:07:55.301Z,96915.09
2023-05-20T15:10:25.563Z,96922.09
2023-05-20T15:12:53.774Z,96914.47
2023-05-20T15:15:21.442Z,96906.44
2023-05-20T15:17:48.420Z,96907.50
2023-05-20T15:20:21.721Z,96910.41
2023-05-20T15:22:55.508Z,96909.63
2023-05-20T15:25:29.560Z,96910.84
2023-05-20T15:27:57.378Z,96914.28
2023-05-20T15:30:27.113Z,96912.50
2023-05-20T15:33:06.692Z,96912.09
2023-05-20T15:35:52.740Z,96912.72
2023-05-20T15:38:20.941Z,96914.59
2023-05-20T15:40:50.871Z,96922.63
2023-05-20T15:43:28.055Z,96914.59
2023-05-20T15:45:57.898Z,96922.41
2023-05-20T15:48:32.253Z,96922.41
2023-05-20T15:51:09.131Z,96928.72
2023-05-20T15:53:38.133Z,96919.63
2023-05-20T15:56:07.399Z,96923.50
2023-05-20T15:58:39.898Z,96918.78
2023-05-20T16:01:07.314Z,96923.13
2023-05-20T16:03:34.182Z,96920.84
2023-05-20T16:06:01.711Z,96921.06
2023-05-20T16:08:35.382Z,96918.00
2023-05-20T16:11:02.656Z,96923.16
2023-05-20T16:13:29.463Z,96915.94
2023-05-20T16:15:57.985Z,96918.63
2023-05-20T16:18:30.530Z,96920.66
2023-05-20T16:20:59.053Z,96929.09
2023-05-20T16:23:26.485Z,96929.69
2023-05-20T16:25:55.484Z,96924.75
2023-05-20T16:28:28.842Z,96928.66
2023-05-20T16:30:56.813Z,96919.34
2023-05-20T16:33:25.389Z,96923.66
2023-05-20T16:35:52.882Z,96920.16
2023-05-20T16:38:19.759Z,96919.53
2023-05-20T16:40:54.792Z,96922.41
2023-05-20T16:43:22.772Z,96920.94
2023-05-20T16:45:49.624Z,96918.28
2023-05-20T16:48:20.422Z,96921.34
2023-05-20T16:50:50.194Z,96926.50
2023-05-20T16:53:17.966Z,96923.38
2023-05-20T16:55:44.780Z,96928.31
2023-05-20T16:58:18.445Z,96927.47
2023-05-20T17:00:50.273Z,96924.19
2023-05-20T17:03:20.047Z,96929.72
2023-05-20T17:05:47.248Z,96929.91
2023-05-20T17:08:14.248Z,96926.63
2023-05-20T17:10:41.388Z,96919.81
2023-05-20T17:13:23.104Z,96933.19
2023-05-20T17:15:59.275Z,96928.84
2023-05-20T17:18:41.901Z,96926.19
2023-05-20T17:21:16.527Z,96932.56
2023-05-20T17:23:52.273Z,96928.22
2023-05-20T17:26:23.965Z,96931.06
2023-05-20T17:28:51.915Z,96928.59
2023-05-20T17:31:18.822Z,96933.13
2023-05-20T17:33:53.157Z,96941.34
2023-05-20T17:36:32.482Z,96940.50
2023-05-20T17:39:19.282Z,96932.69
2023-05-20T17:41:49.594Z,96942.56
2023-05-20T17:44:16.960Z,96932.69
2023-05-20T17:46:52.820Z,96935.53
2023-05-20T17:49:23.614Z,96939.25
2023-05-20T17:51:50.755Z,96943.75
2023-05-20T17:54:17.669Z,96936.13
2023-05-20T17:56:47.838Z,96932.63
2023-05-20T17:59:22.046Z,96932.44
2023-05-20T18:01:55.763Z,96937.16
2023-05-20T18:04:31.754Z,96934.69
2023-05-20T18:06:59.267Z,96940.84
2023-05-20T18:09:26.229Z,96942.69
2023-05-20T18:11:53.121Z,96933.84
2023-05-20T18:14:24.552Z,96944.53
2023-05-20T18:17:02.855Z,96943.91
2023-05-20T18:19:31.379Z,96945.75
2023-05-20T18:22:02.928Z,96947.81
2023-05-20T18:24:30.039Z,96945.31
2023-05-20T18:26:57.420Z,96947.16
2023-05-20T18:29:28.668Z,96945.53
2023-05-20T18:31:58.289Z,96949.22
2023-05-20T18:34:26.927Z,96955.59
2023-05-20T18:36:53.799Z,96953.72
2023-05-20T18:39:24.278Z,96946.94
2023-05-20T18:41:51.699Z,96951.44
2023-05-20T18:44:19.481Z,96962.16
2023-05-20T18:46:46.651Z,96960.50
2023-05-20T18:49:16.588Z,96957.19
2023-05-20T18:51:48.176Z,96960.88
2023-05-20T18:54:17.000Z,96957.56
2023-05-20T18:56:45.127Z,96963.75
2023-05-20T18:59:11.997Z,96960.44
2023-05-20T19:01:46.051Z,96959.63
2023-05-20T19:04:19.482Z,96962.28
2023-05-20T19:06:56.828Z,96957.13
2023-05-20T19:09:24.292Z,96964.31
2023-05-20T19:11:56.221Z,96962.66
2023-05-20T19:14:23.069Z,96965.34
2023-05-20T19:16:50.006Z,96962.03
2023-05-20T19:19:16.961Z,96954.84
2023-05-20T19:21:49.664Z,96961.22
2023-05-20T19:24:19.669Z,96957.06
2023-05-20T19:26:46.696Z,96954.41
2023-05-20T19:29:15.428Z,96967.75
2023-05-20T19:31:43.439Z,96953.75
2023-05-20T19:34:13.818Z,96961.78
2023-05-20T19:36:44.825Z,96964.47
2023-05-20T19:39:21.888Z,96964.84
2023-05-20T19:42:01.295Z,96967.50
2023-05-20T19:44:29.294Z,96971.22
2023-05-20T19:46:56.302Z,96961.53
2023-05-20T19:49:23.527Z,96970.59
2023-05-20T19:51:53.396Z,96975.94
2023-05-20T19:54:26.771Z,96985.00
2023-05-20T19:56:54.492Z,96979.00
2023-05-20T19:59:21.494Z,96983.53
2023-05-20T20:02:04.381Z,96986.38
2023-05-20T20:04:36.205Z,96984.53
2023-05-20T20:07:11.187Z,96990.06
2023-05-20T20:09:38.384Z,96992.13
2023-05-20T20:12:06.699Z,96987.59
2023-05-20T20:14:33.526Z,96989.63
2023-05-20T20:17:04.511Z,96996.81
2023-05-20T20:19:39.766Z,96995.16
2023-05-20T20:22:09.342Z,96991.47
2023-05-20T20:24:36.653Z,96993.50
2023-05-20T20:27:05.041Z,96986.50
2023-05-20T20:29:32.294Z,96987.53
2023-05-20T20:32:02.580Z,96989.56
2023-05-20T20:34:29.419Z,97001.91
2023-05-20T20:37:05.956Z,96995.94
2023-05-20T20:39:38.689Z,96988.94
2023-05-20T20:42:06.864Z,96992.63
2023-05-20T20:44:33.778Z,96997.13
2023-05-20T20:47:04.496Z,96994.66
2023-05-20T20:49:39.590Z,96995.66
2023-05-20T20:52:08.841Z,96994.84
2023-05-20T20:54:36.779Z,96991.50
2023-05-20T20:57:04.299Z,96986.16
2023-05-20T20:59:33.673Z,96993.34
2023-05-20T21:02:01.327Z,96991.69
2023-05-20T21:04:28.242Z,96990.88
2023-05-20T21:06:55.174Z,96976.88
2023-05-20T21:09:22.716Z,96981.19
2023-05-20T21:11:52.697Z,96984.06
2023-05-20T21:14:20.250Z,96980.56
2023-05-20T21:16:47.160Z,96981.56
2023-05-20T21:19:16.472Z,96984.44
2023-05-20T21:21:43.579Z,96987.09
2023-05-20T21:24:10.400Z,96991.63
2023-05-20T21:26:37.226Z,96979.28
2023-05-20T21:29:07.196Z,96980.31
2023-05-20T21:31:35.057Z,96980.50
2023-05-20T21:34:01.977Z,96984.19
2023-05-20T21:36:28.753Z,96972.84
2023-05-20T21:38:55.772Z,96985.19
2023-05-20T21:41:25.765Z,96981.06
2023-05-20T21:43:53.525Z,96989.91
2023-05-20T21:46:20.499Z,96980.22
2023-05-20T21:48:47.317Z,96979.41
2023-05-20T21:51:14.637Z,96979.41
2023-05-20T21:53:44.197Z,96981.44
2023-05-20T21:56:12.163Z,96981.63
2023-05-20T21:58:41.432Z,96977.94
2023-05-20T22:01:10.360Z,96978.94
2023-05-20T22:03:38.560Z,96972.97
2023-05-20T22:06:06.106Z,96972.97
2023-05-20T22:08:35.740Z,96971.31
2023-05-20T22:11:05.698Z,96975.84
2023-05-20T22:13:33.972Z,96973.16
2023-05-20T22:16:02.216Z,96966.16
2023-05-20T22:18:29.616Z,96966.16
2023-05-20T22:20:59.367Z,96964.69
2023-05-20T22:23:27.046Z,96965.53
2023-05-20T22:25:55.219Z,96959.34
2023-05-20T22:28:23.893Z,96956.88
2023-05-20T22:30:51.754Z,96964.88
2023-05-20T22:33:18.793Z,96949.88
2023-05-20T22:35:45.657Z,96957.88
2023-05-20T22:38:12.606Z,96965.91
2023-05-20T22:40:39.661Z,96958.06
2023-05-20T22:43:06.699Z,96951.09
2023-05-20T22:45:33.745Z,96954.78
2023-05-20T22:48:00.781Z,96949.44
2023-05-20T22:50:27.982Z,96943.44
2023-05-20T22:52:55.126Z,96944.47
2023-05-20T22:55:23.531Z,96945.47
2023-05-20T22:57:50.343Z,96943.00
2023-05-20T23:00:18.332Z,96938.50
2023-05-20T23:02:45.911Z,96939.50
2023-05-20T23:05:12.812Z,96943.00
2023-05-20T23:07:39.613Z,96937.84
2023-05-20T23:10:06.796Z,96936.19
2023-05-20T23:12:33.658Z,96930.03
2023-05-20T23:15:00.648Z,96933.72
2023-05-20T23:17:27.549Z,96933.91
2023-05-20T23:19:54.423Z,96933.06
2023-05-20T23:22:21.327Z,96938.41
2023-05-20T23:24:48.168Z,96929.56
2023-05-20T23:27:15.379Z,96920.94
2023-05-20T23:29:42.436Z,96930.00
2023-05-20T23:32:09.317Z,96927.31
2023-05-20T23:34:36.126Z,96923.81
2023-05-20T23:37:03.408Z,96926.69
2023-05-20T23:39:30.267Z,96920.50
2023-05-20T23:41:57.083Z,96920.50
2023-05-20T23:44:23.855Z,96919.88
2023-05-20T23:46:51.293Z,96918.03
2023-05-20T23:49:18.760Z,96911.88
2023-05-20T23:51:45.780Z,96916.56
2023-05-20T23:54:16.523Z,96913.91
2023-05-20T23:56:43.368Z,96911.41
2023-05-20T23:59:10.176Z,96906.25
